Time;durP1;ratioP1;P1;durP2;ratioP2;P2;SDS_P1;SDS_P2;PMS_P1;PMS_P2;Temp;Humidity;BMP_temperature;BMP_pressure;BME280_temperature;BME280_humidity;BME280_pressure;Samples;Min_cycle;Max_cycle;Signal;HPM_P1;HPM_P2
2022/07/25 00:01:07;;;;;;;3.22;1.83;;;;;;;;;;2064448;28;20105;-81
2022/07/25 00:02:26;;;;;;;3.65;1.67;;;;;;;;;;2069309;28;20026;-81
2022/07/25 00:03:45;;;;;;;1.90;1.80;;;;;;;;;;2072705;28;20493;-80
2022/07/25 00:05:04;;;;;;;2.00;1.80;;;;;;;;;;2073555;28;20034;-81
2022/07/25 00:06:23;;;;;;;2.13;1.77;;;;;;;;;;2064018;28;20117;-81
2022/07/25 00:07:42;;;;;;;2.08;1.85;;;;;;;;;;2069483;28;20435;-81
2022/07/25 00:09:01;;;;;;;2.03;1.73;;;;;;;;;;2073039;28;20030;-81
2022/07/25 00:10:20;;;;;;;3.08;2.03;;;;;;;;;;2071267;28;20037;-81
2022/07/25 00:11:39;;;;;;;3.20;1.70;;;;;;;;;;2064076;28;20034;-80
2022/07/25 00:12:58;;;;;;;1.80;1.70;;;;;;;;;;2069518;28;20034;-81
2022/07/25 00:14:17;;;;;;;2.35;2.00;;;;;;;;;;2064453;28;20026;-81
2022/07/25 00:15:36;;;;;;;5.15;2.25;;;;;;;;;;2069485;28;20416;-80
2022/07/25 00:16:55;;;;;;;2.50;2.00;;;;;;;;;;2064247;28;20046;-80
2022/07/25 00:18:14;;;;;;;1.98;1.85;;;;;;;;;;2061394;28;20038;-81
2022/07/25 00:19:33;;;;;;;2.85;1.80;;;;;;;;;;2060504;28;20117;-81
2022/07/25 00:20:51;;;;;;;2.45;1.90;;;;;;;;;;2069013;28;20042;-81
2022/07/25 00:22:12;;;;;;;2.72;2.03;;;;;;;;;;2072544;28;20041;-81
2022/07/25 00:23:31;;;;;;;4.25;2.10;;;;;;;;;;2064192;28;20034;-80
2022/07/25 00:24:49;;;;;;;1.92;1.83;;;;;;;;;;2064077;28;20516;-81
2022/07/25 00:26:08;;;;;;;2.00;1.80;;;;;;;;;;2068751;28;20034;-81
2022/07/25 00:27:27;;;;;;;1.70;1.70;;;;;;;;;;2072149;28;20022;-81
2022/07/25 00:28:45;;;;;;;2.40;2.20;;;;;;;;;;2072217;28;20030;-80
2022/07/25 00:30:05;;;;;;;2.10;1.77;;;;;;;;;;2073145;28;20030;-81
2022/07/25 00:31:23;;;;;;;2.35;1.85;;;;;;;;;;2064327;28;20030;-80
2022/07/25 00:32:42;;;;;;;1.85;1.70;;;;;;;;;;2069270;28;20022;-81
2022/07/25 00:34:01;;;;;;;2.78;2.00;;;;;;;;;;2072743;28;20027;-81
2022/07/25 00:35:20;;;;;;;4.68;2.33;;;;;;;;;;2065043;28;20429;-82
2022/07/25 00:36:39;;;;;;;2.08;1.98;;;;;;;;;;2077155;28;20065;-79
2022/07/25 00:37:58;;;;;;;2.28;1.83;;;;;;;;;;2072320;28;20089;-81
2022/07/25 00:39:17;;;;;;;2.25;1.83;;;;;;;;;;2072185;28;20495;-81
2022/07/25 00:40:36;;;;;;;2.33;2.03;;;;;;;;;;2077610;28;20025;-82
2022/07/25 00:41:55;;;;;;;2.10;2.00;;;;;;;;;;2072003;28;20128;-80
2022/07/25 00:43:14;;;;;;;2.10;2.00;;;;;;;;;;2068717;28;20474;-80
2022/07/25 00:44:33;;;;;;;2.15;2.05;;;;;;;;;;2076299;28;20033;-80
2022/07/25 00:45:52;;;;;;;2.85;1.90;;;;;;;;;;2072199;28;20054;-81
2022/07/25 00:47:11;;;;;;;1.58;1.48;;;;;;;;;;2071920;28;20038;-81
2022/07/25 00:48:29;;;;;;;2.60;1.85;;;;;;;;;;2077328;28;20582;-81
2022/07/25 00:49:48;;;;;;;2.03;1.63;;;;;;;;;;2072349;28;20448;-81
2022/07/25 00:51:08;;;;;;;2.33;1.65;;;;;;;;;;2076757;28;20021;-81
2022/07/25 00:52:27;;;;;;;3.22;2.00;;;;;;;;;;2080419;28;20503;-81
2022/07/25 00:53:46;;;;;;;3.00;2.08;;;;;;;;;;2071521;28;20463;-81
2022/07/25 00:55:05;;;;;;;2.13;2.03;;;;;;;;;;2077214;28;20033;-81
2022/07/25 00:56:24;;;;;;;1.90;1.80;;;;;;;;;;2072185;28;20074;-81
2022/07/25 00:57:43;;;;;;;1.80;1.70;;;;;;;;;;2076663;28;20037;-81
2022/07/25 00:59:03;;;;;;;2.28;1.63;;;;;;;;;;2071791;28;20570;-81
2022/07/25 01:00:22;;;;;;;1.90;1.70;;;;;;;;;;2076203;28;20116;-81
2022/07/25 01:01:41;;;;;;;3.70;1.80;;;;;;;;;;2080898;28;20116;-81
2022/07/25 01:03:00;;;;;;;3.63;2.50;;;;;;;;;;2081207;28;20391;-81
2022/07/25 01:04:19;;;;;;;3.85;1.85;;;;;;;;;;2080556;28;20034;-82
2022/07/25 01:05:38;;;;;;;2.10;2.00;;;;;;;;;;2080477;28;20479;-81
2022/07/25 01:06:57;;;;;;;2.13;1.95;;;;;;;;;;2080000;28;20487;-80
2022/07/25 01:08:17;;;;;;;2.20;2.10;;;;;;;;;;2080814;28;20033;-82
2022/07/25 01:09:36;;;;;;;3.28;2.05;;;;;;;;;;2080367;28;20017;-81
2022/07/25 01:10:55;;;;;;;2.15;2.00;;;;;;;;;;2071978;28;20511;-81
2022/07/25 01:12:14;;;;;;;2.00;1.85;;;;;;;;;;2070981;28;20499;-81
2022/07/25 01:13:33;;;;;;;2.15;2.05;;;;;;;;;;2077326;28;20116;-81
2022/07/25 01:14:52;;;;;;;2.00;1.70;;;;;;;;;;2071906;28;20046;-80
2022/07/25 01:16:11;;;;;;;2.63;2.10;;;;;;;;;;2072074;28;20033;-81
2022/07/25 01:17:30;;;;;;;2.38;2.17;;;;;;;;;;2071032;28;20046;-81
2022/07/25 01:18:48;;;;;;;2.00;1.65;;;;;;;;;;2068815;28;20482;-81
2022/07/25 01:20:20;;;;;;;2.28;1.92;;;;;;;;;;2068228;28;20029;-81
2022/07/25 01:21:40;;;;;;;2.60;2.35;;;;;;;;;;2078526;28;20041;-80
2022/07/25 01:22:59;;;;;;;3.67;1.92;;;;;;;;;;2072175;28;20046;-80
2022/07/25 01:24:18;;;;;;;2.22;2.13;;;;;;;;;;2077244;28;20064;-80
2022/07/25 01:25:37;;;;;;;2.75;2.15;;;;;;;;;;2071780;28;20543;-81
2022/07/25 01:26:56;;;;;;;2.70;2.10;;;;;;;;;;2075549;28;20033;-81
2022/07/25 01:28:15;;;;;;;1.75;1.65;;;;;;;;;;2072171;28;20029;-80
2022/07/25 01:29:33;;;;;;;1.90;1.80;;;;;;;;;;2068310;28;20033;-80
2022/07/25 01:30:52;;;;;;;2.47;1.90;;;;;;;;;;2076893;28;20033;-82
2022/07/25 01:32:11;;;;;;;2.10;2.00;;;;;;;;;;2069622;28;20021;-81
2022/07/25 01:33:30;;;;;;;2.08;1.98;;;;;;;;;;2067250;28;20030;-80
2022/07/25 01:34:49;;;;;;;1.98;1.60;;;;;;;;;;2075860;28;20030;-81
2022/07/25 01:36:08;;;;;;;2.05;1.95;;;;;;;;;;2072016;28;20037;-81
2022/07/25 01:37:27;;;;;;;2.15;2.05;;;;;;;;;;2076626;28;20061;-81
2022/07/25 01:38:46;;;;;;;2.15;1.95;;;;;;;;;;2071471;28;20025;-81
2022/07/25 01:40:05;;;;;;;2.15;2.00;;;;;;;;;;2077001;28;20022;-81
2022/07/25 01:41:24;;;;;;;2.95;1.73;;;;;;;;;;2080655;28;20029;-80
2022/07/25 01:42:43;;;;;;;2.25;2.10;;;;;;;;;;2080076;28;20037;-81
2022/07/25 01:44:02;;;;;;;2.40;2.30;;;;;;;;;;2080588;28;20037;-81
2022/07/25 01:45:20;;;;;;;2.33;2.03;;;;;;;;;;2071682;28;20037;-81
2022/07/25 01:46:39;;;;;;;2.33;2.13;;;;;;;;;;2077159;28;20025;-81
2022/07/25 01:47:58;;;;;;;2.10;2.00;;;;;;;;;;2080737;28;20470;-81
2022/07/25 01:49:17;;;;;;;2.40;2.20;;;;;;;;;;2070237;28;20180;-78
2022/07/25 01:50:36;;;;;;;2.47;2.30;;;;;;;;;;2063793;28;20050;-79
2022/07/25 01:51:55;;;;;;;2.30;2.10;;;;;;;;;;2067760;28;20038;-81
2022/07/25 01:53:14;;;;;;;2.38;1.90;;;;;;;;;;2076852;28;20396;-81
2022/07/25 01:54:33;;;;;;;2.00;1.90;;;;;;;;;;2071570;28;20104;-81
2022/07/25 01:55:52;;;;;;;2.22;2.08;;;;;;;;;;2076180;28;20030;-81
2022/07/25 01:57:11;;;;;;;2.65;2.40;;;;;;;;;;2071661;28;20022;-82
2022/07/25 01:58:30;;;;;;;2.28;2.15;;;;;;;;;;2068186;28;20041;-81
2022/07/25 01:59:49;;;;;;;2.60;2.10;;;;;;;;;;2076810;28;20025;-81
2022/07/25 02:01:08;;;;;;;3.55;2.30;;;;;;;;;;2078274;28;20022;-81
2022/07/25 02:02:27;;;;;;;2.33;2.13;;;;;;;;;;2071945;28;20544;-82
2022/07/25 02:03:45;;;;;;;6.13;2.10;;;;;;;;;;2077170;28;20033;-80
2022/07/25 02:05:04;;;;;;;2.10;2.00;;;;;;;;;;2079414;28;20422;-80
2022/07/25 02:06:23;;;;;;;3.80;1.70;;;;;;;;;;2071350;28;20482;-82
2022/07/25 02:07:42;;;;;;;2.10;2.00;;;;;;;;;;2076840;28;20029;-79
2022/07/25 02:09:02;;;;;;;2.00;1.90;;;;;;;;;;2079905;28;20117;-81
2022/07/25 02:10:21;;;;;;;2.40;2.17;;;;;;;;;;2071986;28;20467;-81
2022/07/25 02:11:40;;;;;;;2.55;2.45;;;;;;;;;;2068025;28;20037;-81
2022/07/25 02:12:59;;;;;;;2.17;2.08;;;;;;;;;;2072179;28;20029;-81
2022/07/25 02:14:18;;;;;;;2.10;2.00;;;;;;;;;;2071470;28;20018;-81
2022/07/25 02:15:37;;;;;;;2.38;2.00;;;;;;;;;;2076551;28;20037;-82
2022/07/25 02:16:56;;;;;;;2.47;2.28;;;;;;;;;;2080275;28;20037;-81
2022/07/25 02:18:15;;;;;;;3.33;2.28;;;;;;;;;;2079153;28;20481;-81
2022/07/25 02:19:34;;;;;;;2.47;2.10;;;;;;;;;;2077329;28;20566;-80
2022/07/25 02:20:53;;;;;;;2.40;2.00;;;;;;;;;;2071089;28;20447;-81
2022/07/25 02:22:12;;;;;;;2.10;1.90;;;;;;;;;;2077171;28;20394;-81
2022/07/25 02:23:32;;;;;;;2.45;2.25;;;;;;;;;;2071189;28;20038;-81
2022/07/25 02:24:50;;;;;;;1.92;1.83;;;;;;;;;;2074830;28;20042;-81
2022/07/25 02:26:10;;;;;;;5.20;2.10;;;;;;;;;;2069931;28;20026;-78
2022/07/25 02:27:28;;;;;;;2.80;2.20;;;;;;;;;;2067226;28;20033;-78
2022/07/25 02:28:48;;;;;;;1.98;1.88;;;;;;;;;;2076666;28;20391;-81
2022/07/25 02:30:07;;;;;;;2.67;2.47;;;;;;;;;;2079705;28;20691;-82
2022/07/25 02:31:26;;;;;;;2.42;2.20;;;;;;;;;;2071084;28;20033;-81
2022/07/25 02:32:45;;;;;;;2.20;2.10;;;;;;;;;;2071424;28;20034;-81
2022/07/25 02:34:04;;;;;;;2.50;2.28;;;;;;;;;;2071424;28;20122;-80
2022/07/25 02:35:23;;;;;;;2.50;2.40;;;;;;;;;;2068173;28;20034;-81
2022/07/25 02:36:41;;;;;;;2.35;2.20;;;;;;;;;;2076483;28;20026;-82
2022/07/25 02:38:00;;;;;;;2.85;2.65;;;;;;;;;;2079144;28;20128;-81
2022/07/25 02:39:20;;;;;;;2.30;2.10;;;;;;;;;;2071423;28;20120;-81
2022/07/25 02:40:39;;;;;;;3.53;2.10;;;;;;;;;;2072312;28;20029;-81
2022/07/25 02:41:57;;;;;;;3.75;2.30;;;;;;;;;;2069822;28;20034;-81
2022/07/25 02:43:17;;;;;;;2.65;2.45;;;;;;;;;;2068226;28;20456;-80
2022/07/25 02:44:36;;;;;;;2.20;2.00;;;;;;;;;;2076031;28;20037;-82
2022/07/25 02:45:55;;;;;;;2.40;2.25;;;;;;;;;;2079884;28;20418;-82
2022/07/25 02:47:14;;;;;;;2.60;2.40;;;;;;;;;;2071020;28;20034;-81
2022/07/25 02:48:33;;;;;;;2.75;2.10;;;;;;;;;;2076424;28;20014;-80
2022/07/25 02:49:52;;;;;;;3.25;2.40;;;;;;;;;;2080279;28;20108;-81
2022/07/25 02:51:11;;;;;;;2.60;2.40;;;;;;;;;;2080164;28;20124;-81
2022/07/25 02:52:29;;;;;;;2.30;2.20;;;;;;;;;;2071403;28;20031;-81
2022/07/25 02:53:48;;;;;;;2.58;2.38;;;;;;;;;;2064981;28;20121;-81
2022/07/25 02:55:08;;;;;;;3.25;2.40;;;;;;;;;;2074471;28;20037;-80
2022/07/25 02:56:27;;;;;;;2.35;2.22;;;;;;;;;;2071358;28;20030;-81
2022/07/25 02:57:46;;;;;;;2.72;2.17;;;;;;;;;;2069187;28;20521;-81
2022/07/25 02:59:05;;;;;;;2.30;2.10;;;;;;;;;;2075839;28;20041;-81
2022/07/25 03:00:25;;;;;;;2.75;2.30;;;;;;;;;;2071592;28;20108;-81
2022/07/25 03:01:44;;;;;;;3.40;2.50;;;;;;;;;;2076439;28;20029;-81
2022/07/25 03:03:03;;;;;;;2.30;2.17;;;;;;;;;;2071126;28;20038;-77
2022/07/25 03:04:21;;;;;;;2.53;2.42;;;;;;;;;;2077132;28;20029;-82
2022/07/25 03:05:41;;;;;;;2.00;1.90;;;;;;;;;;2080318;28;20120;-81
2022/07/25 03:06:59;;;;;;;2.40;2.20;;;;;;;;;;2080255;28;20399;-81
2022/07/25 03:08:18;;;;;;;1.98;1.88;;;;;;;;;;2080731;28;20026;-82
2022/07/25 03:09:37;;;;;;;2.10;2.00;;;;;;;;;;2071161;28;20508;-81
2022/07/25 03:10:56;;;;;;;3.22;2.10;;;;;;;;;;2076681;28;20495;-80
2022/07/25 03:12:15;;;;;;;2.30;2.10;;;;;;;;;;2080365;28;20045;-81
2022/07/25 03:13:34;;;;;;;1.95;1.85;;;;;;;;;;2071376;28;20034;-80
2022/07/25 03:14:53;;;;;;;2.22;2.13;;;;;;;;;;2065728;28;20030;-80
2022/07/25 03:16:11;;;;;;;2.35;2.25;;;;;;;;;;2066734;28;20026;-81
2022/07/25 03:17:30;;;;;;;2.58;2.00;;;;;;;;;;2069586;28;20034;-80
2022/07/25 03:18:49;;;;;;;2.10;2.00;;;;;;;;;;2078466;28;20037;-81
2022/07/25 03:20:09;;;;;;;2.28;2.08;;;;;;;;;;2081823;28;20054;-81
2022/07/25 03:21:28;;;;;;;2.70;2.50;;;;;;;;;;2081150;28;20022;-80
2022/07/25 03:22:47;;;;;;;2.38;2.28;;;;;;;;;;2081180;28;20025;-81
2022/07/25 03:24:07;;;;;;;2.38;2.17;;;;;;;;;;2081200;28;20455;-80
2022/07/25 03:25:25;;;;;;;2.33;2.20;;;;;;;;;;2072082;28;20030;-80
2022/07/25 03:26:44;;;;;;;2.30;2.10;;;;;;;;;;2078361;28;20025;-81
2022/07/25 03:28:03;;;;;;;3.28;2.20;;;;;;;;;;2081427;28;20395;-81
2022/07/25 03:29:22;;;;;;;2.25;2.10;;;;;;;;;;2081303;28;20029;-79
2022/07/25 03:30:41;;;;;;;2.28;2.17;;;;;;;;;;2073207;28;20109;-81
2022/07/25 03:32:00;;;;;;;2.60;2.35;;;;;;;;;;2069585;28;20041;-81
2022/07/25 03:33:19;;;;;;;2.20;2.10;;;;;;;;;;2078344;28;20060;-81
2022/07/25 03:34:38;;;;;;;2.40;2.20;;;;;;;;;;2080916;28;20021;-79
2022/07/25 03:35:57;;;;;;;2.55;2.35;;;;;;;;;;2066104;28;20027;-80
2022/07/25 03:37:16;;;;;;;2.10;1.90;;;;;;;;;;2069893;28;20407;-81
2022/07/25 03:38:35;;;;;;;1.92;1.83;;;;;;;;;;2073038;28;20100;-80
2022/07/25 03:39:53;;;;;;;2.20;2.10;;;;;;;;;;2073441;28;20034;-81
2022/07/25 03:41:12;;;;;;;2.50;2.30;;;;;;;;;;2064710;28;20022;-81
2022/07/25 03:42:31;;;;;;;3.08;2.47;;;;;;;;;;2069627;28;20030;-82
2022/07/25 03:43:51;;;;;;;2.92;2.60;;;;;;;;;;2062129;28;20030;-81
2022/07/25 03:45:10;;;;;;;2.63;2.38;;;;;;;;;;2068450;28;20025;-81
2022/07/25 03:46:29;;;;;;;3.05;2.20;;;;;;;;;;2064521;28;20034;-79
2022/07/25 03:47:49;;;;;;;2.60;2.42;;;;;;;;;;2069838;28;20026;-81
2022/07/25 03:49:08;;;;;;;2.35;2.22;;;;;;;;;;2064806;28;20034;-81
2022/07/25 03:50:27;;;;;;;3.80;2.13;;;;;;;;;;2069518;28;20030;-81
2022/07/25 03:51:46;;;;;;;2.00;1.90;;;;;;;;;;2063761;28;20062;-81
2022/07/25 03:53:05;;;;;;;3.17;2.30;;;;;;;;;;2060889;28;20038;-81
2022/07/25 03:54:23;;;;;;;2.40;2.20;;;;;;;;;;2069937;28;20382;-80
2022/07/25 03:55:42;;;;;;;2.33;2.10;;;;;;;;;;2073381;28;20136;-81
2022/07/25 03:57:01;;;;;;;2.58;2.45;;;;;;;;;;2072925;28;20025;-81
2022/07/25 03:58:20;;;;;;;2.80;2.60;;;;;;;;;;2063993;28;20110;-81
2022/07/25 03:59:39;;;;;;;2.83;2.35;;;;;;;;;;2070215;28;20515;-81
2022/07/25 04:00:58;;;;;;;3.80;2.25;;;;;;;;;;2064628;28;20042;-81
2022/07/25 04:02:16;;;;;;;2.70;2.50;;;;;;;;;;2069592;28;20499;-81
2022/07/25 04:03:35;;;;;;;4.47;2.50;;;;;;;;;;2063828;28;20034;-82
2022/07/25 04:04:54;;;;;;;2.42;2.20;;;;;;;;;;2069467;28;20531;-81
2022/07/25 04:06:13;;;;;;;2.40;1.90;;;;;;;;;;2073113;28;20038;-80
2022/07/25 04:07:32;;;;;;;2.22;1.92;;;;;;;;;;2064320;28;20030;-81
2022/07/25 04:08:52;;;;;;;2.80;2.45;;;;;;;;;;2068602;28;20030;-81
2022/07/25 04:10:11;;;;;;;2.40;2.20;;;;;;;;;;2064365;28;20026;-80
2022/07/25 04:11:30;;;;;;;2.55;2.35;;;;;;;;;;2060717;28;20415;-81
2022/07/25 04:12:49;;;;;;;2.47;2.38;;;;;;;;;;2060839;28;20512;-81
2022/07/25 04:14:08;;;;;;;4.38;2.03;;;;;;;;;;2061205;28;20030;-81
2022/07/25 04:15:27;;;;;;;2.42;2.22;;;;;;;;;;2068976;28;20034;-80
2022/07/25 04:16:46;;;;;;;2.50;2.30;;;;;;;;;;2072895;28;20055;-81
2022/07/25 04:18:05;;;;;;;2.60;2.40;;;;;;;;;;2063939;28;20034;-80
2022/07/25 04:19:23;;;;;;;2.28;2.05;;;;;;;;;;2069278;28;20487;-81
2022/07/25 04:20:42;;;;;;;2.60;2.50;;;;;;;;;;2063272;28;20038;-77
2022/07/25 04:22:01;;;;;;;3.58;2.40;;;;;;;;;;2063629;28;20042;-80
2022/07/25 04:23:20;;;;;;;2.60;2.40;;;;;;;;;;2068621;28;20042;-81
2022/07/25 04:24:39;;;;;;;2.33;2.08;;;;;;;;;;2072187;28;20034;-80
2022/07/25 04:25:58;;;;;;;2.20;2.00;;;;;;;;;;2063936;28;20042;-81
2022/07/25 04:27:17;;;;;;;3.63;2.25;;;;;;;;;;2069611;28;20025;-81
2022/07/25 04:28:36;;;;;;;2.50;2.30;;;;;;;;;;2063258;28;20030;-79
2022/07/25 04:29:54;;;;;;;3.35;2.50;;;;;;;;;;2069135;28;20026;-81
2022/07/25 04:31:14;;;;;;;2.28;2.17;;;;;;;;;;2062796;28;20027;-80
2022/07/25 04:32:33;;;;;;;2.88;2.40;;;;;;;;;;2060266;28;20030;-81
2022/07/25 04:33:52;;;;;;;2.88;2.13;;;;;;;;;;2060653;28;20532;-80
2022/07/25 04:35:11;;;;;;;2.97;2.30;;;;;;;;;;2060417;28;20042;-80
2022/07/25 04:36:30;;;;;;;4.10;2.50;;;;;;;;;;2064355;28;20584;-81
2022/07/25 04:37:49;;;;;;;2.40;2.25;;;;;;;;;;2060484;28;20042;-82
2022/07/25 04:39:08;;;;;;;2.47;2.17;;;;;;;;;;2061242;28;20098;-81
2022/07/25 04:40:27;;;;;;;2.40;2.30;;;;;;;;;;2068860;28;20672;-81
2022/07/25 04:41:46;;;;;;;2.63;2.42;;;;;;;;;;2063815;28;20039;-81
2022/07/25 04:43:05;;;;;;;2.42;2.33;;;;;;;;;;2076923;28;20049;-81
2022/07/25 04:44:24;;;;;;;2.30;2.20;;;;;;;;;;2066833;28;20031;-81
2022/07/25 04:45:43;;;;;;;2.92;2.30;;;;;;;;;;2060892;28;20050;-80
2022/07/25 04:47:02;;;;;;;2.40;2.30;;;;;;;;;;2058509;28;20031;-81
2022/07/25 04:48:21;;;;;;;3.08;2.75;;;;;;;;;;2067933;28;20399;-81
2022/07/25 04:49:40;;;;;;;3.00;2.40;;;;;;;;;;2073043;28;20400;-81
2022/07/25 04:50:59;;;;;;;2.33;1.95;;;;;;;;;;2063694;28;20453;-80
2022/07/25 04:52:17;;;;;;;2.42;2.28;;;;;;;;;;2063040;28;20042;-81
2022/07/25 04:53:36;;;;;;;2.75;2.45;;;;;;;;;;2069011;28;20026;-82
2022/07/25 04:54:55;;;;;;;2.63;2.40;;;;;;;;;;2072679;28;20037;-80
2022/07/25 04:56:14;;;;;;;2.80;2.55;;;;;;;;;;2072441;28;20052;-81
2022/07/25 04:57:33;;;;;;;2.83;2.58;;;;;;;;;;2072764;28;20078;-81
2022/07/25 04:58:52;;;;;;;2.38;2.17;;;;;;;;;;2062977;28;20417;-81
2022/07/25 05:00:12;;;;;;;2.83;2.63;;;;;;;;;;2067946;28;20038;-81
2022/07/25 05:01:31;;;;;;;2.58;2.47;;;;;;;;;;2063851;28;20050;-81
2022/07/25 05:02:50;;;;;;;2.00;1.90;;;;;;;;;;2064292;28;20031;-81
2022/07/25 05:04:09;;;;;;;2.50;2.40;;;;;;;;;;2063589;28;20042;-81
2022/07/25 05:05:28;;;;;;;2.90;2.60;;;;;;;;;;2069754;28;20049;-81
2022/07/25 05:06:47;;;;;;;3.70;2.35;;;;;;;;;;2063938;28;20031;-80
2022/07/25 05:08:05;;;;;;;2.38;2.28;;;;;;;;;;2068890;28;20030;-81
2022/07/25 05:09:26;;;;;;;3.30;2.45;;;;;;;;;;2072687;28;20034;-81
2022/07/25 05:10:45;;;;;;;3.17;2.88;;;;;;;;;;2072086;28;20030;-80
2022/07/25 05:12:04;;;;;;;2.83;2.63;;;;;;;;;;2063777;28;20034;-81
2022/07/25 05:13:22;;;;;;;2.97;2.75;;;;;;;;;;2060546;28;20105;-81
2022/07/25 05:14:41;;;;;;;2.60;2.40;;;;;;;;;;2057814;28;20039;-80
2022/07/25 05:16:00;;;;;;;2.80;2.60;;;;;;;;;;2067596;28;20037;-81
2022/07/25 05:17:20;;;;;;;3.90;3.05;;;;;;;;;;2064520;28;20062;-81
2022/07/25 05:18:39;;;;;;;5.07;2.60;;;;;;;;;;2063683;28;20488;-79
2022/07/25 05:19:58;;;;;;;3.97;2.83;;;;;;;;;;2063737;28;20038;-81
2022/07/25 05:21:17;;;;;;;4.90;2.80;;;;;;;;;;2067195;28;20030;-81
2022/07/25 05:22:36;;;;;;;3.30;3.10;;;;;;;;;;2063842;28;20046;-81
2022/07/25 05:23:55;;;;;;;5.72;3.13;;;;;;;;;;2064122;28;20034;-81
2022/07/25 05:25:14;;;;;;;3.13;2.90;;;;;;;;;;2063620;28;20050;-81
2022/07/25 05:26:33;;;;;;;3.42;2.58;;;;;;;;;;2060052;28;20578;-81
2022/07/25 05:27:54;;;;;;;2.38;2.28;;;;;;;;;;2067906;28;20038;-81
2022/07/25 05:29:13;;;;;;;3.53;2.60;;;;;;;;;;2063633;28;20038;-82
2022/07/25 05:30:32;;;;;;;4.30;2.75;;;;;;;;;;2069135;28;20055;-82
2022/07/25 05:31:51;;;;;;;3.40;3.17;;;;;;;;;;2072857;28;20030;-82
2022/07/25 05:33:09;;;;;;;3.25;2.92;;;;;;;;;;2063616;28;20038;-82
2022/07/25 05:34:28;;;;;;;3.13;2.80;;;;;;;;;;2068412;28;20054;-82
2022/07/25 05:35:47;;;;;;;2.92;2.72;;;;;;;;;;2064390;28;20038;-81
2022/07/25 05:37:06;;;;;;;5.90;3.03;;;;;;;;;;2076898;28;20042;-82
2022/07/25 05:38:25;;;;;;;3.70;3.20;;;;;;;;;;2080233;28;20025;-78
2022/07/25 05:39:44;;;;;;;3.30;3.00;;;;;;;;;;2079397;28;20025;-82
2022/07/25 05:41:03;;;;;;;3.63;3.13;;;;;;;;;;2080284;28;20112;-82
2022/07/25 05:42:22;;;;;;;2.90;2.70;;;;;;;;;;2079636;28;20124;-81
2022/07/25 05:43:44;;;;;;;2.90;2.70;;;;;;;;;;2080093;28;21119;-82
2022/07/25 05:45:04;;;;;;;3.40;3.00;;;;;;;;;;2080489;28;20429;-81
2022/07/25 05:46:22;;;;;;;2.90;2.70;;;;;;;;;;2071320;28;20494;-81
2022/07/25 05:47:41;;;;;;;3.13;2.92;;;;;;;;;;2077077;28;20018;-81
2022/07/25 05:49:00;;;;;;;3.50;3.20;;;;;;;;;;2071769;28;20519;-81
2022/07/25 05:50:19;;;;;;;5.25;2.90;;;;;;;;;;2068784;28;20555;-81
2022/07/25 05:51:37;;;;;;;4.00;3.05;;;;;;;;;;2076639;28;20021;-81
2022/07/25 05:52:56;;;;;;;3.97;3.22;;;;;;;;;;2071610;28;20331;-81
2022/07/25 05:54:15;;;;;;;2.90;2.70;;;;;;;;;;2068292;28;20034;-82
2022/07/25 05:55:34;;;;;;;2.95;2.75;;;;;;;;;;2076331;28;20026;-81
2022/07/25 05:56:53;;;;;;;6.43;3.03;;;;;;;;;;2080530;28;20037;-81
2022/07/25 05:58:12;;;;;;;2.60;2.50;;;;;;;;;;2080064;28;20116;-82
2022/07/25 05:59:31;;;;;;;3.22;3.03;;;;;;;;;;2071953;28;20037;-82
2022/07/25 06:00:51;;;;;;;2.88;2.67;;;;;;;;;;2068244;28;20149;-81
2022/07/25 06:02:09;;;;;;;3.40;3.08;;;;;;;;;;2075936;28;20041;-82
2022/07/25 06:03:28;;;;;;;5.20;3.15;;;;;;;;;;2080521;28;20025;-82
2022/07/25 06:04:47;;;;;;;2.70;2.50;;;;;;;;;;2081019;28;20494;-82
2022/07/25 06:06:10;;;;;;;2.83;2.63;;;;;;;;;;2071540;28;20034;-82
2022/07/25 06:07:29;;;;;;;3.28;2.97;;;;;;;;;;2075635;28;20029;-81
2022/07/25 06:08:48;;;;;;;5.63;2.97;;;;;;;;;;2079516;28;20030;-82
2022/07/25 06:10:07;;;;;;;3.30;3.00;;;;;;;;;;2071756;28;20495;-82
2022/07/25 06:11:27;;;;;;;3.20;3.00;;;;;;;;;;2077029;28;20029;-81
2022/07/25 06:12:46;;;;;;;3.25;3.05;;;;;;;;;;2072036;28;20038;-82
2022/07/25 06:14:05;;;;;;;3.08;2.88;;;;;;;;;;2076689;28;20104;-83
2022/07/25 06:15:24;;;;;;;4.38;3.15;;;;;;;;;;2079889;28;20029;-82
2022/07/25 06:16:42;;;;;;;3.53;3.28;;;;;;;;;;2071748;28;20854;-83
2022/07/25 06:18:01;;;;;;;3.42;3.13;;;;;;;;;;2068648;28;20491;-82
2022/07/25 06:19:20;;;;;;;3.20;2.90;;;;;;;;;;2076626;28;20073;-82
2022/07/25 06:20:39;;;;;;;2.80;2.60;;;;;;;;;;2080410;28;20029;-80
2022/07/25 06:21:58;;;;;;;3.10;2.90;;;;;;;;;;2080283;28;20037;-80
2022/07/25 06:23:17;;;;;;;3.15;2.70;;;;;;;;;;2078626;28;20454;-82
2022/07/25 06:24:36;;;;;;;4.28;3.15;;;;;;;;;;2071653;28;20041;-82
2022/07/25 06:25:55;;;;;;;2.80;2.70;;;;;;;;;;2076659;28;20120;-82
2022/07/25 06:27:15;;;;;;;3.53;2.70;;;;;;;;;;2080306;28;20025;-82
2022/07/25 06:28:34;;;;;;;3.22;3.03;;;;;;;;;;2071592;28;20022;-82
2022/07/25 06:29:52;;;;;;;3.25;3.05;;;;;;;;;;2077033;28;20026;-82
2022/07/25 06:31:11;;;;;;;3.58;2.65;;;;;;;;;;2079962;28;20029;-82
2022/07/25 06:32:30;;;;;;;5.47;2.80;;;;;;;;;;2079945;28;20034;-82
2022/07/25 06:33:49;;;;;;;3.47;3.17;;;;;;;;;;2071196;28;20041;-82
2022/07/25 06:35:08;;;;;;;3.60;3.08;;;;;;;;;;2076836;28;20025;-82
2022/07/25 06:36:27;;;;;;;3.85;3.13;;;;;;;;;;2068445;28;20043;-81
2022/07/25 06:37:46;;;;;;;3.08;2.88;;;;;;;;;;2068130;28;20042;-82
2022/07/25 06:39:05;;;;;;;5.78;3.03;;;;;;;;;;2076769;28;20030;-81
2022/07/25 06:40:24;;;;;;;4.50;3.55;;;;;;;;;;2080156;28;20033;-81
2022/07/25 06:41:43;;;;;;;3.72;3.42;;;;;;;;;;2079898;28;20045;-82
2022/07/25 06:43:02;;;;;;;2.80;2.65;;;;;;;;;;2079951;28;20120;-82
2022/07/25 06:44:21;;;;;;;4.70;2.90;;;;;;;;;;2080188;28;20033;-82
2022/07/25 06:45:45;;;;;;;5.70;3.50;;;;;;;;;;2071454;28;20034;-83
2022/07/25 06:47:04;;;;;;;4.15;2.90;;;;;;;;;;2071347;28;20030;-82
2022/07/25 06:48:23;;;;;;;4.35;2.80;;;;;;;;;;2068445;28;20496;-83
2022/07/25 06:49:42;;;;;;;3.28;3.08;;;;;;;;;;2071341;28;20037;-82
2022/07/25 06:51:02;;;;;;;3.00;2.80;;;;;;;;;;2068319;28;20034;-82
2022/07/25 06:52:21;;;;;;;3.70;3.40;;;;;;;;;;2073181;28;20037;-81
2022/07/25 06:53:40;;;;;;;4.13;3.40;;;;;;;;;;2069771;28;20030;-82
2022/07/25 06:54:59;;;;;;;5.38;3.13;;;;;;;;;;2078982;28;20029;-82
2022/07/25 06:56:18;;;;;;;5.78;3.28;;;;;;;;;;2079176;28;20101;-82
2022/07/25 06:57:37;;;;;;;4.00;3.67;;;;;;;;;;2081905;28;20033;-82
2022/07/25 06:58:56;;;;;;;3.55;3.25;;;;;;;;;;2081700;28;20065;-82
2022/07/25 07:00:15;;;;;;;3.67;3.38;;;;;;;;;;2081615;28;20479;-82
2022/07/25 07:01:34;;;;;;;3.60;3.13;;;;;;;;;;2073491;28;20030;-83
2022/07/25 07:02:55;;;;;;;7.35;3.80;;;;;;;;;;2069942;28;20034;-82
2022/07/25 07:04:14;;;;;;;3.92;3.50;;;;;;;;;;2078738;28;20067;-82
2022/07/25 07:05:35;;;;;;;3.85;3.55;;;;;;;;;;2072920;28;20030;-83
2022/07/25 07:06:53;;;;;;;3.85;3.08;;;;;;;;;;2078371;28;20025;-82
2022/07/25 07:08:12;;;;;;;4.00;3.60;;;;;;;;;;2081376;28;20038;-81
2022/07/25 07:09:31;;;;;;;5.68;3.70;;;;;;;;;;2082150;28;20116;-82
2022/07/25 07:10:50;;;;;;;4.65;3.47;;;;;;;;;;2081462;28;20601;-82
2022/07/25 07:12:10;;;;;;;4.43;4.00;;;;;;;;;;2081659;28;20029;-82
2022/07/25 07:13:29;;;;;;;3.38;3.08;;;;;;;;;;2081321;28;20025;-82
2022/07/25 07:14:48;;;;;;;4.68;3.30;;;;;;;;;;2080787;28;20061;-82
2022/07/25 07:16:07;;;;;;;3.97;3.13;;;;;;;;;;2072842;28;20022;-82
2022/07/25 07:17:26;;;;;;;4.20;3.83;;;;;;;;;;2078308;28;20041;-81
2022/07/25 07:18:45;;;;;;;3.83;3.40;;;;;;;;;;2072919;28;20061;-82
2022/07/25 07:20:04;;;;;;;4.05;3.22;;;;;;;;;;2069555;28;20414;-82
2022/07/25 07:21:23;;;;;;;4.55;3.53;;;;;;;;;;2072479;28;20512;-82
2022/07/25 07:22:43;;;;;;;4.63;3.53;;;;;;;;;;2073036;28;20065;-82
2022/07/25 07:24:02;;;;;;;8.38;3.97;;;;;;;;;;2075832;28;20034;-82
2022/07/25 07:25:22;;;;;;;4.10;3.80;;;;;;;;;;2082723;28;20038;-82
2022/07/25 07:26:41;;;;;;;3.85;3.55;;;;;;;;;;2081622;28;20033;-82
2022/07/25 07:28:00;;;;;;;3.95;3.63;;;;;;;;;;2081472;28;20034;-81
2022/07/25 07:29:19;;;;;;;4.03;3.63;;;;;;;;;;2080559;28;20038;-81
2022/07/25 07:30:38;;;;;;;3.60;3.30;;;;;;;;;;2081438;28;20029;-82
2022/07/25 07:31:57;;;;;;;3.63;3.42;;;;;;;;;;2073147;28;20500;-81
2022/07/25 07:33:16;;;;;;;6.25;3.83;;;;;;;;;;2071787;28;20030;-82
2022/07/25 07:34:35;;;;;;;3.58;3.22;;;;;;;;;;2077778;28;20510;-81
2022/07/25 07:35:55;;;;;;;3.83;3.38;;;;;;;;;;2080915;28;20029;-82
2022/07/25 07:37:14;;;;;;;4.72;3.25;;;;;;;;;;2081194;28;20494;-82
2022/07/25 07:38:33;;;;;;;3.72;3.40;;;;;;;;;;2081440;28;20044;-83
2022/07/25 07:39:52;;;;;;;3.67;3.30;;;;;;;;;;2081125;28;20108;-83
2022/07/25 07:41:12;;;;;;;3.90;3.13;;;;;;;;;;2072826;28;20074;-82
2022/07/25 07:42:41;;;;;;;3.78;3.47;;;;;;;;;;2077959;28;20029;-82
2022/07/25 07:44:00;;;;;;;3.75;3.45;;;;;;;;;;2072067;28;20069;-81
2022/07/25 07:45:20;;;;;;;8.13;3.85;;;;;;;;;;2077297;28;20029;-81
2022/07/25 07:46:39;;;;;;;4.45;3.60;;;;;;;;;;2081110;28;20658;-81
2022/07/25 07:47:58;;;;;;;4.20;3.60;;;;;;;;;;2082015;28;20026;-82
2022/07/25 07:49:17;;;;;;;3.30;3.10;;;;;;;;;;2071909;28;20031;-79
2022/07/25 07:50:36;;;;;;;7.32;4.10;;;;;;;;;;2077167;28;20022;-81
2022/07/25 07:51:55;;;;;;;4.20;3.47;;;;;;;;;;2072626;28;20037;-82
2022/07/25 07:53:14;;;;;;;6.45;3.63;;;;;;;;;;2078072;28;20101;-81
2022/07/25 07:56:11;;;;;;;3.78;3.45;;;;;;;;;;2081106;28;20034;-82